sensor_id;sensor_type;location;lat;lon;timestamp;temperature;humidity
2603;DHT22;1311;47.966;7.958;2024-01-11T00:00:55;-5.70;99.90
2603;DHT22;1311;47.966;7.958;2024-01-11T00:03:24;-5.70;99.90
2603;DHT22;1311;47.966;7.958;2024-01-11T00:05:51;-5.70;99.90
2603;DHT22;1311;47.966;7.958;2024-01-11T00:08:18;-5.70;99.90
2603;DHT22;1311;47.966;7.958;2024-01-11T00:10:44;-5.80;99.90
2603;DHT22;1311;47.966;7.958;2024-01-11T00:13:11;-5.80;99.90
2603;DHT22;1311;47.966;7.958;2024-01-11T00:15:39;-5.80;99.90
2603;DHT22;1311;47.966;7.958;2024-01-11T00:18:06;-5.80;99.90
2603;DHT22;1311;47.966;7.958;2024-01-11T00:20:33;-5.80;99.90
2603;DHT22;1311;47.966;7.958;2024-01-11T00:23:00;-5.80;99.90
2603;DHT22;1311;47.966;7.958;2024-01-11T00:25:26;-5.80;99.90
2603;DHT22;1311;47.966;7.958;2024-01-11T00:27:53;-5.80;99.90
2603;DHT22;1311;47.966;7.958;2024-01-11T00:30:20;-5.80;99.90
2603;DHT22;1311;47.966;7.958;2024-01-11T00:32:50;-5.80;99.90
2603;DHT22;1311;47.966;7.958;2024-01-11T00:35:16;-5.90;99.90
2603;DHT22;1311;47.966;7.958;2024-01-11T00:37:43;-5.90;99.90
2603;DHT22;1311;47.966;7.958;2024-01-11T00:40:10;-5.80;99.90
2603;DHT22;1311;47.966;7.958;2024-01-11T00:42:37;-5.90;99.90
2603;DHT22;1311;47.966;7.958;2024-01-11T00:45:05;-5.90;99.90
2603;DHT22;1311;47.966;7.958;2024-01-11T00:47:31;-5.90;99.90
2603;DHT22;1311;47.966;7.958;2024-01-11T00:49:59;-5.90;99.90
2603;DHT22;1311;47.966;7.958;2024-01-11T00:52:26;-6.00;99.90
2603;DHT22;1311;47.966;7.958;2024-01-11T00:54:53;-6.00;99.90
2603;DHT22;1311;47.966;7.958;2024-01-11T00:57:20;-6.00;99.90
2603;DHT22;1311;47.966;7.958;2024-01-11T00:59:46;-6.00;99.90
2603;DHT22;1311;47.966;7.958;2024-01-11T01:02:13;-6.00;99.90
2603;DHT22;1311;47.966;7.958;2024-01-11T01:04:40;-6.00;99.90
2603;DHT22;1311;47.966;7.958;2024-01-11T01:07:08;-6.00;99.90
2603;DHT22;1311;47.966;7.958;2024-01-11T01:09:35;-6.00;99.90
2603;DHT22;1311;47.966;7.958;2024-01-11T01:12:02;-6.00;99.90
2603;DHT22;1311;47.966;7.958;2024-01-11T01:14:29;-6.00;99.90
2603;DHT22;1311;47.966;7.958;2024-01-11T01:16:56;-6.00;99.90
2603;DHT22;1311;47.966;7.958;2024-01-11T01:19:23;-6.00;99.90
2603;DHT22;1311;47.966;7.958;2024-01-11T01:21:49;-6.10;99.90
2603;DHT22;1311;47.966;7.958;2024-01-11T01:24:17;-6.10;99.90
2603;DHT22;1311;47.966;7.958;2024-01-11T01:26:44;-6.10;99.90
2603;DHT22;1311;47.966;7.958;2024-01-11T01:29:11;-6.10;99.90
2603;DHT22;1311;47.966;7.958;2024-01-11T01:31:38;-6.20;99.90
2603;DHT22;1311;47.966;7.958;2024-01-11T01:34:06;-6.20;99.90
2603;DHT22;1311;47.966;7.958;2024-01-11T01:36:33;-6.20;99.90
2603;DHT22;1311;47.966;7.958;2024-01-11T01:39:00;-6.20;99.90
2603;DHT22;1311;47.966;7.958;2024-01-11T01:41:28;-6.20;99.90
2603;DHT22;1311;47.966;7.958;2024-01-11T01:43:54;-6.20;99.90
2603;DHT22;1311;47.966;7.958;2024-01-11T01:46:23;-6.20;99.90
2603;DHT22;1311;47.966;7.958;2024-01-11T01:48:50;-6.30;99.90
2603;DHT22;1311;47.966;7.958;2024-01-11T01:51:18;-6.30;99.90
2603;DHT22;1311;47.966;7.958;2024-01-11T01:53:45;-6.20;99.90
2603;DHT22;1311;47.966;7.958;2024-01-11T01:56:13;-6.20;99.90
2603;DHT22;1311;47.966;7.958;2024-01-11T01:58:41;-6.20;99.90
2603;DHT22;1311;47.966;7.958;2024-01-11T02:01:09;-6.20;99.90
2603;DHT22;1311;47.966;7.958;2024-01-11T02:03:36;-6.20;99.90
2603;DHT22;1311;47.966;7.958;2024-01-11T02:06:04;-6.20;99.90
2603;DHT22;1311;47.966;7.958;2024-01-11T02:08:32;-6.20;99.90
2603;DHT22;1311;47.966;7.958;2024-01-11T02:10:59;-6.20;99.90
2603;DHT22;1311;47.966;7.958;2024-01-11T02:13:26;-6.30;99.90
2603;DHT22;1311;47.966;7.958;2024-01-11T02:15:55;-6.30;99.90
2603;DHT22;1311;47.966;7.958;2024-01-11T02:18:21;-6.30;99.90
2603;DHT22;1311;47.966;7.958;2024-01-11T02:20:48;-6.30;99.90
2603;DHT22;1311;47.966;7.958;2024-01-11T02:23:17;-6.30;99.90
2603;DHT22;1311;47.966;7.958;2024-01-11T02:25:46;-6.30;99.90
2603;DHT22;1311;47.966;7.958;2024-01-11T02:28:13;-6.30;99.90
2603;DHT22;1311;47.966;7.958;2024-01-11T02:30:40;-6.30;99.90
2603;DHT22;1311;47.966;7.958;2024-01-11T02:33:08;-6.30;99.90
2603;DHT22;1311;47.966;7.958;2024-01-11T02:35:35;-6.30;99.90
2603;DHT22;1311;47.966;7.958;2024-01-11T02:38:04;-6.30;99.90
2603;DHT22;1311;47.966;7.958;2024-01-11T02:40:32;-6.30;99.90
2603;DHT22;1311;47.966;7.958;2024-01-11T02:43:08;-6.40;99.90
2603;DHT22;1311;47.966;7.958;2024-01-11T02:45:35;-6.40;99.90
2603;DHT22;1311;47.966;7.958;2024-01-11T02:48:03;-6.40;99.90
2603;DHT22;1311;47.966;7.958;2024-01-11T02:50:30;-6.40;99.90
2603;DHT22;1311;47.966;7.958;2024-01-11T02:52:56;-6.40;99.90
2603;DHT22;1311;47.966;7.958;2024-01-11T02:55:23;-6.40;99.90
2603;DHT22;1311;47.966;7.958;2024-01-11T02:57:50;-6.40;99.90
2603;DHT22;1311;47.966;7.958;2024-01-11T03:00:18;-6.40;99.90
2603;DHT22;1311;47.966;7.958;2024-01-11T03:02:45;-6.40;99.90
2603;DHT22;1311;47.966;7.958;2024-01-11T03:05:12;-6.50;99.90
2603;DHT22;1311;47.966;7.958;2024-01-11T03:07:38;-6.50;99.90
2603;DHT22;1311;47.966;7.958;2024-01-11T03:10:06;-6.50;99.90
2603;DHT22;1311;47.966;7.958;2024-01-11T03:12:32;-6.50;99.90
2603;DHT22;1311;47.966;7.958;2024-01-11T03:14:59;-6.50;99.90
2603;DHT22;1311;47.966;7.958;2024-01-11T03:17:27;-6.50;99.90
2603;DHT22;1311;47.966;7.958;2024-01-11T03:19:54;-6.50;99.90
2603;DHT22;1311;47.966;7.958;2024-01-11T03:22:21;-6.50;99.90
2603;DHT22;1311;47.966;7.958;2024-01-11T03:24:47;-6.50;99.90
2603;DHT22;1311;47.966;7.958;2024-01-11T03:27:15;-6.50;99.90
2603;DHT22;1311;47.966;7.958;2024-01-11T03:29:42;-6.40;99.90
2603;DHT22;1311;47.966;7.958;2024-01-11T03:32:09;-6.40;99.90
2603;DHT22;1311;47.966;7.958;2024-01-11T03:34:39;-6.50;99.90
2603;DHT22;1311;47.966;7.958;2024-01-11T03:37:06;-6.40;99.90
2603;DHT22;1311;47.966;7.958;2024-01-11T03:39:34;-6.40;99.90
2603;DHT22;1311;47.966;7.958;2024-01-11T03:42:00;-6.40;99.90
2603;DHT22;1311;47.966;7.958;2024-01-11T03:44:29;-6.50;99.90
2603;DHT22;1311;47.966;7.958;2024-01-11T03:46:56;-6.40;99.90
2603;DHT22;1311;47.966;7.958;2024-01-11T03:49:23;-6.50;99.90
2603;DHT22;1311;47.966;7.958;2024-01-11T03:51:51;-6.40;99.90
2603;DHT22;1311;47.966;7.958;2024-01-11T03:54:18;-6.40;99.90
2603;DHT22;1311;47.966;7.958;2024-01-11T03:56:44;-6.40;99.90
2603;DHT22;1311;47.966;7.958;2024-01-11T03:59:11;-6.40;99.90
2603;DHT22;1311;47.966;7.958;2024-01-11T04:01:40;-6.40;99.90
2603;DHT22;1311;47.966;7.958;2024-01-11T04:04:06;-6.40;99.90
2603;DHT22;1311;47.966;7.958;2024-01-11T04:06:33;-6.40;99.90
2603;DHT22;1311;47.966;7.958;2024-01-11T04:09:01;-6.40;99.90
2603;DHT22;1311;47.966;7.958;2024-01-11T04:11:28;-6.30;99.90
2603;DHT22;1311;47.966;7.958;2024-01-11T04:13:55;-6.30;99.90
2603;DHT22;1311;47.966;7.958;2024-01-11T04:16:22;-6.30;99.90
2603;DHT22;1311;47.966;7.958;2024-01-11T04:18:48;-6.20;99.90
2603;DHT22;1311;47.966;7.958;2024-01-11T04:21:22;-6.20;99.90
2603;DHT22;1311;47.966;7.958;2024-01-11T04:23:49;-6.10;99.90
2603;DHT22;1311;47.966;7.958;2024-01-11T04:26:17;-6.10;99.90
2603;DHT22;1311;47.966;7.958;2024-01-11T04:28:45;-6.00;99.90
2603;DHT22;1311;47.966;7.958;2024-01-11T04:31:12;-5.90;99.90
2603;DHT22;1311;47.966;7.958;2024-01-11T04:33:40;-5.80;99.90
2603;DHT22;1311;47.966;7.958;2024-01-11T04:36:07;-5.70;99.90
2603;DHT22;1311;47.966;7.958;2024-01-11T04:38:34;-5.60;99.90
2603;DHT22;1311;47.966;7.958;2024-01-11T04:41:00;-5.60;99.90
2603;DHT22;1311;47.966;7.958;2024-01-11T04:43:28;-5.50;99.90
2603;DHT22;1311;47.966;7.958;2024-01-11T04:45:55;-5.40;99.90
2603;DHT22;1311;47.966;7.958;2024-01-11T04:48:22;-5.40;99.90
2603;DHT22;1311;47.966;7.958;2024-01-11T04:50:48;-5.40;99.90
2603;DHT22;1311;47.966;7.958;2024-01-11T04:53:15;-5.30;99.90
2603;DHT22;1311;47.966;7.958;2024-01-11T04:55:42;-5.30;99.90
2603;DHT22;1311;47.966;7.958;2024-01-11T04:58:09;-5.20;99.90
2603;DHT22;1311;47.966;7.958;2024-01-11T05:00:37;-5.20;99.90
2603;DHT22;1311;47.966;7.958;2024-01-11T05:03:04;-5.10;99.90
2603;DHT22;1311;47.966;7.958;2024-01-11T05:05:30;-5.00;99.90
2603;DHT22;1311;47.966;7.958;2024-01-11T05:07:57;-5.00;99.90
2603;DHT22;1311;47.966;7.958;2024-01-11T05:10:24;-4.90;99.90
2603;DHT22;1311;47.966;7.958;2024-01-11T05:12:50;-4.90;99.90
2603;DHT22;1311;47.966;7.958;2024-01-11T05:15:17;-4.80;99.90
2603;DHT22;1311;47.966;7.958;2024-01-11T05:17:45;-4.80;99.90
2603;DHT22;1311;47.966;7.958;2024-01-11T05:20:12;-4.70;99.90
2603;DHT22;1311;47.966;7.958;2024-01-11T05:22:39;-4.80;99.90
2603;DHT22;1311;47.966;7.958;2024-01-11T05:25:06;-4.70;99.90
2603;DHT22;1311;47.966;7.958;2024-01-11T05:27:32;-4.80;99.90
2603;DHT22;1311;47.966;7.958;2024-01-11T05:29:59;-4.70;99.90
2603;DHT22;1311;47.966;7.958;2024-01-11T05:32:26;-4.60;99.90
2603;DHT22;1311;47.966;7.958;2024-01-11T05:34:54;-4.70;99.90
2603;DHT22;1311;47.966;7.958;2024-01-11T05:37:20;-4.70;99.90
2603;DHT22;1311;47.966;7.958;2024-01-11T05:39:47;-4.60;99.90
2603;DHT22;1311;47.966;7.958;2024-01-11T05:42:14;-4.60;99.90
2603;DHT22;1311;47.966;7.958;2024-01-11T05:44:41;-4.50;99.90
2603;DHT22;1311;47.966;7.958;2024-01-11T05:47:07;-4.40;99.90
2603;DHT22;1311;47.966;7.958;2024-01-11T05:49:34;-4.40;99.90
2603;DHT22;1311;47.966;7.958;2024-01-11T05:52:03;-4.40;99.90
2603;DHT22;1311;47.966;7.958;2024-01-11T05:54:30;-4.40;99.90
2603;DHT22;1311;47.966;7.958;2024-01-11T05:56:56;-4.40;99.90
2603;DHT22;1311;47.966;7.958;2024-01-11T05:59:24;-4.40;99.90
2603;DHT22;1311;47.966;7.958;2024-01-11T06:01:51;-4.40;99.90
2603;DHT22;1311;47.966;7.958;2024-01-11T06:04:18;-4.40;99.90
2603;DHT22;1311;47.966;7.958;2024-01-11T06:06:45;-4.30;99.90
2603;DHT22;1311;47.966;7.958;2024-01-11T06:09:13;-4.30;99.90
2603;DHT22;1311;47.966;7.958;2024-01-11T06:11:39;-4.30;99.90
2603;DHT22;1311;47.966;7.958;2024-01-11T06:14:06;-4.20;99.90
2603;DHT22;1311;47.966;7.958;2024-01-11T06:16:33;-4.30;99.90
2603;DHT22;1311;47.966;7.958;2024-01-11T06:19:00;-4.40;99.90
2603;DHT22;1311;47.966;7.958;2024-01-11T06:21:27;-4.30;99.90
2603;DHT22;1311;47.966;7.958;2024-01-11T06:23:54;-4.30;99.90
2603;DHT22;1311;47.966;7.958;2024-01-11T06:26:22;-4.30;99.90
2603;DHT22;1311;47.966;7.958;2024-01-11T06:28:49;-4.40;99.90
2603;DHT22;1311;47.966;7.958;2024-01-11T06:31:16;-4.50;99.90
2603;DHT22;1311;47.966;7.958;2024-01-11T06:33:44;-4.50;99.90
2603;DHT22;1311;47.966;7.958;2024-01-11T06:36:10;-4.50;99.90
2603;DHT22;1311;47.966;7.958;2024-01-11T06:38:37;-4.50;99.90
2603;DHT22;1311;47.966;7.958;2024-01-11T06:41:04;-4.40;99.90
2603;DHT22;1311;47.966;7.958;2024-01-11T06:43:32;-4.40;99.90
2603;DHT22;1311;47.966;7.958;2024-01-11T06:46:02;-4.30;99.90
2603;DHT22;1311;47.966;7.958;2024-01-11T06:48:29;-4.30;99.90
2603;DHT22;1311;47.966;7.958;2024-01-11T06:50:56;-4.30;99.90
2603;DHT22;1311;47.966;7.958;2024-01-11T06:53:23;-4.20;99.90
2603;DHT22;1311;47.966;7.958;2024-01-11T06:55:52;-4.20;99.90
2603;DHT22;1311;47.966;7.958;2024-01-11T06:58:20;-4.30;99.90
2603;DHT22;1311;47.966;7.958;2024-01-11T07:00:49;-4.30;99.90
2603;DHT22;1311;47.966;7.958;2024-01-11T07:03:24;-4.40;99.90
2603;DHT22;1311;47.966;7.958;2024-01-11T07:05:51;-4.30;99.90
2603;DHT22;1311;47.966;7.958;2024-01-11T07:08:18;-4.30;99.90
2603;DHT22;1311;47.966;7.958;2024-01-11T07:10:45;-4.30;99.90
2603;DHT22;1311;47.966;7.958;2024-01-11T07:13:11;-4.30;99.90
2603;DHT22;1311;47.966;7.958;2024-01-11T07:15:42;-4.20;99.90
2603;DHT22;1311;47.966;7.958;2024-01-11T07:18:10;-4.20;99.90
2603;DHT22;1311;47.966;7.958;2024-01-11T07:20:37;-4.20;99.90
2603;DHT22;1311;47.966;7.958;2024-01-11T07:23:04;-4.30;99.90
2603;DHT22;1311;47.966;7.958;2024-01-11T07:25:30;-4.30;99.90
2603;DHT22;1311;47.966;7.958;2024-01-11T07:27:57;-4.30;99.90
2603;DHT22;1311;47.966;7.958;2024-01-11T07:30:24;-4.20;99.90
2603;DHT22;1311;47.966;7.958;2024-01-11T07:32:51;-4.20;99.90
2603;DHT22;1311;47.966;7.958;2024-01-11T07:35:19;-4.30;99.90
2603;DHT22;1311;47.966;7.958;2024-01-11T07:37:47;-4.40;99.90
2603;DHT22;1311;47.966;7.958;2024-01-11T07:40:15;-4.40;99.90
2603;DHT22;1311;47.966;7.958;2024-01-11T07:42:45;-4.30;99.90
2603;DHT22;1311;47.966;7.958;2024-01-11T07:45:12;-4.20;99.90
2603;DHT22;1311;47.966;7.958;2024-01-11T07:47:39;-4.20;99.90
2603;DHT22;1311;47.966;7.958;2024-01-11T07:50:07;-4.20;99.90
2603;DHT22;1311;47.966;7.958;2024-01-11T07:52:36;-4.30;99.90
2603;DHT22;1311;47.966;7.958;2024-01-11T07:55:03;-4.30;99.90
2603;DHT22;1311;47.966;7.958;2024-01-11T07:57:33;-4.30;99.90
2603;DHT22;1311;47.966;7.958;2024-01-11T08:00:00;-4.30;99.90
2603;DHT22;1311;47.966;7.958;2024-01-11T08:02:27;-4.30;99.90
2603;DHT22;1311;47.966;7.958;2024-01-11T08:04:53;-4.20;99.90
2603;DHT22;1311;47.966;7.958;2024-01-11T08:07:20;-4.30;99.90
2603;DHT22;1311;47.966;7.958;2024-01-11T08:09:48;-4.10;99.90
2603;DHT22;1311;47.966;7.958;2024-01-11T08:12:15;-4.30;99.90
2603;DHT22;1311;47.966;7.958;2024-01-11T08:14:44;-4.10;99.90
2603;DHT22;1311;47.966;7.958;2024-01-11T08:17:11;-4.10;99.90
2603;DHT22;1311;47.966;7.958;2024-01-11T08:19:39;-4.10;99.90
2603;DHT22;1311;47.966;7.958;2024-01-11T08:22:06;-4.10;99.90
2603;DHT22;1311;47.966;7.958;2024-01-11T08:24:35;-4.20;99.90
2603;DHT22;1311;47.966;7.958;2024-01-11T08:27:03;-4.20;99.90
2603;DHT22;1311;47.966;7.958;2024-01-11T08:29:31;-4.10;99.90
2603;DHT22;1311;47.966;7.958;2024-01-11T08:31:58;-4.10;99.90
2603;DHT22;1311;47.966;7.958;2024-01-11T08:34:26;-4.10;99.90
2603;DHT22;1311;47.966;7.958;2024-01-11T08:36:53;-3.90;99.90
2603;DHT22;1311;47.966;7.958;2024-01-11T08:39:20;-3.90;99.90
2603;DHT22;1311;47.966;7.958;2024-01-11T08:41:48;-3.80;99.90
2603;DHT22;1311;47.966;7.958;2024-01-11T08:44:16;-3.80;99.90
2603;DHT22;1311;47.966;7.958;2024-01-11T08:46:43;-3.60;99.90
2603;DHT22;1311;47.966;7.958;2024-01-11T08:49:10;-3.50;99.90
2603;DHT22;1311;47.966;7.958;2024-01-11T08:51:37;-3.40;99.90
2603;DHT22;1311;47.966;7.958;2024-01-11T08:54:04;-3.40;99.90
2603;DHT22;1311;47.966;7.958;2024-01-11T08:56:34;-3.40;99.90
2603;DHT22;1311;47.966;7.958;2024-01-11T08:59:01;-3.30;99.90
2603;DHT22;1311;47.966;7.958;2024-01-11T09:01:29;-3.10;99.90
2603;DHT22;1311;47.966;7.958;2024-01-11T09:03:57;-3.00;99.90
2603;DHT22;1311;47.966;7.958;2024-01-11T09:06:24;-2.90;99.90
2603;DHT22;1311;47.966;7.958;2024-01-11T09:08:51;-2.70;99.90
2603;DHT22;1311;47.966;7.958;2024-01-11T09:11:18;-2.70;99.90
2603;DHT22;1311;47.966;7.958;2024-01-11T09:13:45;-2.50;99.90
2603;DHT22;1311;47.966;7.958;2024-01-11T09:16:14;-2.50;99.90
2603;DHT22;1311;47.966;7.958;2024-01-11T09:18:43;-2.40;99.90
2603;DHT22;1311;47.966;7.958;2024-01-11T09:21:11;-2.30;99.90
2603;DHT22;1311;47.966;7.958;2024-01-11T09:23:38;-2.20;99.90
2603;DHT22;1311;47.966;7.958;2024-01-11T09:26:05;-2.10;99.90
2603;DHT22;1311;47.966;7.958;2024-01-11T09:28:32;-2.10;99.90
2603;DHT22;1311;47.966;7.958;2024-01-11T09:30:59;-2.20;99.90
2603;DHT22;1311;47.966;7.958;2024-01-11T09:33:27;-2.20;99.90
2603;DHT22;1311;47.966;7.958;2024-01-11T09:35:57;-2.20;99.90
2603;DHT22;1311;47.966;7.958;2024-01-11T09:38:24;-2.30;99.90
2603;DHT22;1311;47.966;7.958;2024-01-11T09:41:01;-2.30;99.90
2603;DHT22;1311;47.966;7.958;2024-01-11T09:43:33;-2.30;99.90
2603;DHT22;1311;47.966;7.958;2024-01-11T09:46:02;-2.10;99.90
2603;DHT22;1311;47.966;7.958;2024-01-11T09:48:30;-2.20;99.90
2603;DHT22;1311;47.966;7.958;2024-01-11T09:50:59;-2.20;99.90
2603;DHT22;1311;47.966;7.958;2024-01-11T09:53:28;-2.30;99.90
2603;DHT22;1311;47.966;7.958;2024-01-11T09:55:56;-2.40;99.90
2603;DHT22;1311;47.966;7.958;2024-01-11T09:58:23;-2.30;99.90
2603;DHT22;1311;47.966;7.958;2024-01-11T10:00:54;-2.20;99.90
2603;DHT22;1311;47.966;7.958;2024-01-11T10:03:23;-2.20;99.90
2603;DHT22;1311;47.966;7.958;2024-01-11T10:05:51;-2.10;99.90
2603;DHT22;1311;47.966;7.958;2024-01-11T10:08:23;-1.80;99.90
2603;DHT22;1311;47.966;7.958;2024-01-11T10:10:50;-1.70;99.90
2603;DHT22;1311;47.966;7.958;2024-01-11T10:13:18;-1.70;99.90
2603;DHT22;1311;47.966;7.958;2024-01-11T10:15:46;-1.60;99.90
2603;DHT22;1311;47.966;7.958;2024-01-11T10:18:13;-1.90;99.90
2603;DHT22;1311;47.966;7.958;2024-01-11T10:20:39;-1.60;99.90
2603;DHT22;1311;47.966;7.958;2024-01-11T10:23:07;-1.40;99.90
2603;DHT22;1311;47.966;7.958;2024-01-11T10:25:35;-1.20;99.90
2603;DHT22;1311;47.966;7.958;2024-01-11T10:28:02;-1.00;99.90
2603;DHT22;1311;47.966;7.958;2024-01-11T10:30:29;-0.90;99.90
2603;DHT22;1311;47.966;7.958;2024-01-11T10:32:57;-0.80;99.90
2603;DHT22;1311;47.966;7.958;2024-01-11T10:35:24;-0.80;99.90
2603;DHT22;1311;47.966;7.958;2024-01-11T10:37:51;-0.80;99.90
2603;DHT22;1311;47.966;7.958;2024-01-11T10:40:20;-0.70;99.90
2603;DHT22;1311;47.966;7.958;2024-01-11T10:42:52;-0.80;99.90
2603;DHT22;1311;47.966;7.958;2024-01-11T10:45:21;-0.70;99.90
2603;DHT22;1311;47.966;7.958;2024-01-11T10:47:51;-0.70;99.90
2603;DHT22;1311;47.966;7.958;2024-01-11T10:50:19;-0.90;99.90
2603;DHT22;1311;47.966;7.958;2024-01-11T10:52:56;-1.40;99.90
2603;DHT22;1311;47.966;7.958;2024-01-11T10:55:24;-1.60;99.90
2603;DHT22;1311;47.966;7.958;2024-01-11T10:57:54;-1.80;99.90
2603;DHT22;1311;47.966;7.958;2024-01-11T11:00:21;-1.90;99.90
2603;DHT22;1311;47.966;7.958;2024-01-11T11:02:50;-1.80;99.90
2603;DHT22;1311;47.966;7.958;2024-01-11T11:05:19;-1.60;99.90
2603;DHT22;1311;47.966;7.958;2024-01-11T11:07:47;-1.60;99.90
2603;DHT22;1311;47.966;7.958;2024-01-11T11:10:16;-1.60;99.90
2603;DHT22;1311;47.966;7.958;2024-01-11T11:12:45;-1.80;99.90
2603;DHT22;1311;47.966;7.958;2024-01-11T11:15:14;-2.10;99.90
2603;DHT22;1311;47.966;7.958;2024-01-11T11:17:42;-2.10;99.90
2603;DHT22;1311;47.966;7.958;2024-01-11T11:20:11;-2.10;99.90
2603;DHT22;1311;47.966;7.958;2024-01-11T11:22:40;-1.80;99.90
2603;DHT22;1311;47.966;7.958;2024-01-11T11:25:08;-1.70;99.90
2603;DHT22;1311;47.966;7.958;2024-01-11T11:27:36;-1.50;99.90
2603;DHT22;1311;47.966;7.958;2024-01-11T11:30:03;-1.30;99.90
2603;DHT22;1311;47.966;7.958;2024-01-11T11:32:43;-1.20;99.90
2603;DHT22;1311;47.966;7.958;2024-01-11T11:35:10;-1.20;99.90
2603;DHT22;1311;47.966;7.958;2024-01-11T11:37:37;-1.10;99.90
2603;DHT22;1311;47.966;7.958;2024-01-11T11:40:05;-1.20;99.90
2603;DHT22;1311;47.966;7.958;2024-01-11T11:42:34;-1.00;99.90
2603;DHT22;1311;47.966;7.958;2024-01-11T11:45:01;-0.90;99.90
2603;DHT22;1311;47.966;7.958;2024-01-11T11:47:34;-0.90;99.90
2603;DHT22;1311;47.966;7.958;2024-01-11T11:50:07;-1.20;99.90
2603;DHT22;1311;47.966;7.958;2024-01-11T11:52:36;-1.30;99.90
2603;DHT22;1311;47.966;7.958;2024-01-11T11:55:04;-1.30;99.90
2603;DHT22;1311;47.966;7.958;2024-01-11T11:57:31;-1.40;99.90
2603;DHT22;1311;47.966;7.958;2024-01-11T11:59:59;-1.30;99.90
2603;DHT22;1311;47.966;7.958;2024-01-11T12:02:31;-1.00;99.90
2603;DHT22;1311;47.966;7.958;2024-01-11T12:04:58;-0.70;99.90
2603;DHT22;1311;47.966;7.958;2024-01-11T12:07:26;-0.60;99.90
2603;DHT22;1311;47.966;7.958;2024-01-11T12:09:53;-0.80;99.90
2603;DHT22;1311;47.966;7.958;2024-01-11T12:12:20;-0.80;99.90
2603;DHT22;1311;47.966;7.958;2024-01-11T12:14:47;-0.90;99.90
2603;DHT22;1311;47.966;7.958;2024-01-11T12:17:14;-1.00;99.90
2603;DHT22;1311;47.966;7.958;2024-01-11T12:19:41;-0.90;99.90
2603;DHT22;1311;47.966;7.958;2024-01-11T12:22:08;-0.90;99.90
2603;DHT22;1311;47.966;7.958;2024-01-11T12:24:37;-0.90;99.90
2603;DHT22;1311;47.966;7.958;2024-01-11T12:27:04;-0.80;99.90
2603;DHT22;1311;47.966;7.958;2024-01-11T12:29:31;-0.90;99.90
2603;DHT22;1311;47.966;7.958;2024-01-11T12:31:58;-1.00;99.90
2603;DHT22;1311;47.966;7.958;2024-01-11T12:34:26;-1.10;99.90
2603;DHT22;1311;47.966;7.958;2024-01-11T12:36:53;-0.90;99.90
2603;DHT22;1311;47.966;7.958;2024-01-11T12:39:20;-0.80;99.90
2603;DHT22;1311;47.966;7.958;2024-01-11T12:41:50;-0.80;99.90
2603;DHT22;1311;47.966;7.958;2024-01-11T12:44:18;-0.90;99.90
2603;DHT22;1311;47.966;7.958;2024-01-11T12:46:48;-0.80;99.90
2603;DHT22;1311;47.966;7.958;2024-01-11T12:49:15;-0.70;99.90
2603;DHT22;1311;47.966;7.958;2024-01-11T12:51:42;-0.60;99.90
2603;DHT22;1311;47.966;7.958;2024-01-11T12:54:11;-0.60;99.90
2603;DHT22;1311;47.966;7.958;2024-01-11T12:56:41;-0.70;99.90
2603;DHT22;1311;47.966;7.958;2024-01-11T12:59:10;-0.70;99.90
2603;DHT22;1311;47.966;7.958;2024-01-11T13:01:38;-0.50;99.90
2603;DHT22;1311;47.966;7.958;2024-01-11T13:04:07;-0.50;99.90
2603;DHT22;1311;47.966;7.958;2024-01-11T13:06:35;-0.40;99.90
2603;DHT22;1311;47.966;7.958;2024-01-11T13:09:02;-0.20;99.90
2603;DHT22;1311;47.966;7.958;2024-01-11T13:11:29;-0.20;99.90
2603;DHT22;1311;47.966;7.958;2024-01-11T13:13:56;-0.20;99.90
2603;DHT22;1311;47.966;7.958;2024-01-11T13:16:28;-0.20;99.90
2603;DHT22;1311;47.966;7.958;2024-01-11T13:18:55;-0.20;99.90
2603;DHT22;1311;47.966;7.958;2024-01-11T13:21:22;-0.30;99.90
2603;DHT22;1311;47.966;7.958;2024-01-11T13:23:49;-0.30;99.90
2603;DHT22;1311;47.966;7.958;2024-01-11T13:26:16;-0.30;99.90
2603;DHT22;1311;47.966;7.958;2024-01-11T13:28:42;-0.30;99.90
2603;DHT22;1311;47.966;7.958;2024-01-11T13:31:10;-0.40;99.90
2603;DHT22;1311;47.966;7.958;2024-01-11T13:33:39;-0.40;99.90
2603;DHT22;1311;47.966;7.958;2024-01-11T13:36:06;-0.40;99.90
2603;DHT22;1311;47.966;7.958;2024-01-11T13:38:34;-0.20;99.90
2603;DHT22;1311;47.966;7.958;2024-01-11T13:41:01;-0.10;99.90
2603;DHT22;1311;47.966;7.958;2024-01-11T13:43:28;0.10;99.90
2603;DHT22;1311;47.966;7.958;2024-01-11T13:45:55;0.10;99.90
2603;DHT22;1311;47.966;7.958;2024-01-11T13:48:22;-0.20;99.90
2603;DHT22;1311;47.966;7.958;2024-01-11T13:50:50;-0.40;99.90
2603;DHT22;1311;47.966;7.958;2024-01-11T13:53:16;-0.40;99.90
2603;DHT22;1311;47.966;7.958;2024-01-11T13:55:43;-0.50;99.90
2603;DHT22;1311;47.966;7.958;2024-01-11T13:58:10;-0.70;99.90
2603;DHT22;1311;47.966;7.958;2024-01-11T14:00:38;-0.70;99.90
2603;DHT22;1311;47.966;7.958;2024-01-11T14:03:05;-0.50;99.90
2603;DHT22;1311;47.966;7.958;2024-01-11T14:05:32;-0.40;99.90
2603;DHT22;1311;47.966;7.958;2024-01-11T14:08:01;-0.20;99.90
2603;DHT22;1311;47.966;7.958;2024-01-11T14:10:31;-0.20;99.90
2603;DHT22;1311;47.966;7.958;2024-01-11T14:12:59;-0.20;99.90
2603;DHT22;1311;47.966;7.958;2024-01-11T14:15:27;-0.30;99.90
2603;DHT22;1311;47.966;7.958;2024-01-11T14:17:54;-0.30;99.90
2603;DHT22;1311;47.966;7.958;2024-01-11T14:20:21;-0.50;99.90
2603;DHT22;1311;47.966;7.958;2024-01-11T14:22:49;-0.50;99.90
2603;DHT22;1311;47.966;7.958;2024-01-11T14:25:19;-0.60;99.90
2603;DHT22;1311;47.966;7.958;2024-01-11T14:27:47;-0.60;99.90
2603;DHT22;1311;47.966;7.958;2024-01-11T14:30:14;-0.70;99.90
2603;DHT22;1311;47.966;7.958;2024-01-11T14:32:41;-0.70;99.90
2603;DHT22;1311;47.966;7.958;2024-01-11T14:35:08;-0.70;99.90
2603;DHT22;1311;47.966;7.958;2024-01-11T14:37:36;-0.80;99.90
2603;DHT22;1311;47.966;7.958;2024-01-11T14:40:04;-0.90;99.90
2603;DHT22;1311;47.966;7.958;2024-01-11T14:42:33;-1.00;99.90
2603;DHT22;1311;47.966;7.958;2024-01-11T14:45:00;-1.00;99.90
2603;DHT22;1311;47.966;7.958;2024-01-11T14:47:26;-1.00;99.90
2603;DHT22;1311;47.966;7.958;2024-01-11T14:49:53;-1.20;99.90
2603;DHT22;1311;47.966;7.958;2024-01-11T14:52:20;-1.20;99.90
2603;DHT22;1311;47.966;7.958;2024-01-11T14:54:46;-1.30;99.90
2603;DHT22;1311;47.966;7.958;2024-01-11T14:57:14;-1.30;99.90
2603;DHT22;1311;47.966;7.958;2024-01-11T14:59:42;-1.40;99.90
2603;DHT22;1311;47.966;7.958;2024-01-11T15:02:13;-1.60;99.90
2603;DHT22;1311;47.966;7.958;2024-01-11T15:04:40;-1.70;99.90
2603;DHT22;1311;47.966;7.958;2024-01-11T15:07:07;-1.80;99.90
2603;DHT22;1311;47.966;7.958;2024-01-11T15:09:34;-1.80;99.90
2603;DHT22;1311;47.966;7.958;2024-01-11T15:12:02;-1.90;99.90
2603;DHT22;1311;47.966;7.958;2024-01-11T15:14:29;-1.80;99.90
2603;DHT22;1311;47.966;7.958;2024-01-11T15:16:57;-1.90;99.90
2603;DHT22;1311;47.966;7.958;2024-01-11T15:19:24;-1.90;99.90
2603;DHT22;1311;47.966;7.958;2024-01-11T15:21:51;-2.00;99.90
2603;DHT22;1311;47.966;7.958;2024-01-11T15:24:17;-2.10;99.90
2603;DHT22;1311;47.966;7.958;2024-01-11T15:26:44;-2.10;99.90
2603;DHT22;1311;47.966;7.958;2024-01-11T15:29:11;-2.20;99.90
2603;DHT22;1311;47.966;7.958;2024-01-11T15:31:38;-2.20;99.90
2603;DHT22;1311;47.966;7.958;2024-01-11T15:34:08;-2.20;99.90
2603;DHT22;1311;47.966;7.958;2024-01-11T15:36:35;-2.30;99.90
2603;DHT22;1311;47.966;7.958;2024-01-11T15:39:02;-2.30;99.90
2603;DHT22;1311;47.966;7.958;2024-01-11T15:41:29;-2.30;99.90
2603;DHT22;1311;47.966;7.958;2024-01-11T15:43:56;-2.40;99.90
2603;DHT22;1311;47.966;7.958;2024-01-11T15:46:24;-2.50;99.90
2603;DHT22;1311;47.966;7.958;2024-01-11T15:48:51;-2.50;99.90
2603;DHT22;1311;47.966;7.958;2024-01-11T15:51:20;-2.50;99.90
2603;DHT22;1311;47.966;7.958;2024-01-11T15:53:47;-2.50;99.90
2603;DHT22;1311;47.966;7.958;2024-01-11T15:56:15;-2.60;99.90
2603;DHT22;1311;47.966;7.958;2024-01-11T15:58:41;-2.70;99.90
2603;DHT22;1311;47.966;7.958;2024-01-11T16:01:08;-2.80;99.90
2603;DHT22;1311;47.966;7.958;2024-01-11T16:03:35;-2.80;99.90